sensor_id;sensor_type;location;lat;lon;timestamp;pressure;altitude;pressure_sealevel;temperature;humidity
44872;BME280;30602;51.060;17.226;2023-03-18T00:01:57;101527.95;;;3.06;63.56
44872;BME280;30602;51.060;17.226;2023-03-18T00:06:21;101522.51;;;2.82;64.03
44872;BME280;30602;51.060;17.226;2023-03-18T00:10:34;101525.10;;;2.69;64.91
44872;BME280;30602;51.060;17.226;2023-03-18T00:14:21;101527.44;;;2.42;66.34
44872;BME280;30602;51.060;17.226;2023-03-18T00:17:57;101527.71;;;2.20;66.07
44872;BME280;30602;51.060;17.226;2023-03-18T00:27:04;101513.72;;;2.08;69.14
44872;BME280;30602;51.060;17.226;2023-03-18T00:31:16;101506.67;;;1.78;71.27
44872;BME280;30602;51.060;17.226;2023-03-18T00:34:41;101504.19;;;1.48;72.52
44872;BME280;30602;51.060;17.226;2023-03-18T00:38:38;101498.43;;;1.36;73.14
44872;BME280;30602;51.060;17.226;2023-03-18T00:43:03;101497.02;;;1.19;73.57
44872;BME280;30602;51.060;17.226;2023-03-18T00:46:47;101492.16;;;1.00;74.40
44872;BME280;30602;51.060;17.226;2023-03-18T00:54:48;101493.26;;;1.24;72.43
44872;BME280;30602;51.060;17.226;2023-03-18T00:58:35;101494.45;;;1.49;71.07
44872;BME280;30602;51.060;17.226;2023-03-18T01:02:29;101493.59;;;1.74;69.31
44872;BME280;30602;51.060;17.226;2023-03-18T01:06:18;101497.73;;;1.96;68.05
44872;BME280;30602;51.060;17.226;2023-03-18T01:10:03;101499.77;;;2.09;67.71
44872;BME280;30602;51.060;17.226;2023-03-18T01:13:36;101501.14;;;2.07;67.15
44872;BME280;30602;51.060;17.226;2023-03-18T01:17:26;101497.89;;;2.11;67.17
44872;BME280;30602;51.060;17.226;2023-03-18T01:21:09;101499.88;;;1.92;68.40
44872;BME280;30602;51.060;17.226;2023-03-18T01:24:52;101503.24;;;1.81;68.58
44872;BME280;30602;51.060;17.226;2023-03-18T01:28:17;101501.69;;;1.99;66.91
44872;BME280;30602;51.060;17.226;2023-03-18T01:31:57;101500.51;;;2.14;65.79
44872;BME280;30602;51.060;17.226;2023-03-18T01:35:41;101494.84;;;2.31;64.99
44872;BME280;30602;51.060;17.226;2023-03-18T01:39:21;101493.90;;;2.37;65.23
44872;BME280;30602;51.060;17.226;2023-03-18T01:43:12;101489.52;;;2.04;67.09
44872;BME280;30602;51.060;17.226;2023-03-18T01:47:08;101500.66;;;1.74;68.45
44872;BME280;30602;51.060;17.226;2023-03-18T01:51:12;101495.04;;;1.55;69.11
44872;BME280;30602;51.060;17.226;2023-03-18T01:58:59;101496.02;;;1.85;67.47
44872;BME280;30602;51.060;17.226;2023-03-18T02:02:38;101495.71;;;1.75;68.45
44872;BME280;30602;51.060;17.226;2023-03-18T02:06:43;101489.71;;;1.59;69.31
44872;BME280;30602;51.060;17.226;2023-03-18T02:10:23;101491.40;;;1.46;69.83
44872;BME280;30602;51.060;17.226;2023-03-18T02:14:11;101486.71;;;1.28;70.69
44872;BME280;30602;51.060;17.226;2023-03-18T02:29:48;101499.37;;;0.74;74.73
44872;BME280;30602;51.060;17.226;2023-03-18T02:33:55;101499.04;;;0.76;74.41
44872;BME280;30602;51.060;17.226;2023-03-18T02:37:30;101498.34;;;0.85;73.89
44872;BME280;30602;51.060;17.226;2023-03-18T02:41:19;101499.64;;;0.91;73.60
44872;BME280;30602;51.060;17.226;2023-03-18T02:44:54;101499.70;;;0.92;73.48
44872;BME280;30602;51.060;17.226;2023-03-18T02:48:16;101496.84;;;0.93;73.80
44872;BME280;30602;51.060;17.226;2023-03-18T02:52:00;101502.12;;;0.90;74.16
44872;BME280;30602;51.060;17.226;2023-03-18T02:56:18;101497.24;;;0.82;74.94
44872;BME280;30602;51.060;17.226;2023-03-18T03:00:19;101495.20;;;0.66;75.78
44872;BME280;30602;51.060;17.226;2023-03-18T03:05:47;101499.16;;;0.51;76.38
44872;BME280;30602;51.060;17.226;2023-03-18T03:09:13;101502.49;;;0.42;76.60
44872;BME280;30602;51.060;17.226;2023-03-18T03:12:52;101505.34;;;0.34;77.03
44872;BME280;30602;51.060;17.226;2023-03-18T03:16:57;101502.91;;;0.30;77.18
44872;BME280;30602;51.060;17.226;2023-03-18T03:25:00;101502.68;;;0.55;76.41
44872;BME280;30602;51.060;17.226;2023-03-18T03:28:32;101503.63;;;0.75;74.95
44872;BME280;30602;51.060;17.226;2023-03-18T03:32:56;101496.66;;;0.96;73.55
44872;BME280;30602;51.060;17.226;2023-03-18T03:36:51;101496.78;;;1.30;71.22
44872;BME280;30602;51.060;17.226;2023-03-18T03:40:44;101501.68;;;1.50;70.08
44872;BME280;30602;51.060;17.226;2023-03-18T03:44:10;101500.87;;;1.71;68.86
44872;BME280;30602;51.060;17.226;2023-03-18T03:47:35;101496.65;;;1.82;68.54
44872;BME280;30602;51.060;17.226;2023-03-18T03:50:58;101502.05;;;1.82;69.00
44872;BME280;30602;51.060;17.226;2023-03-18T03:54:39;101500.50;;;1.79;69.26
44872;BME280;30602;51.060;17.226;2023-03-18T03:58:17;101502.69;;;1.83;68.41
44872;BME280;30602;51.060;17.226;2023-03-18T04:02:11;101509.57;;;1.91;67.61
44872;BME280;30602;51.060;17.226;2023-03-18T04:06:05;101507.93;;;2.04;67.01
44872;BME280;30602;51.060;17.226;2023-03-18T04:09:24;101515.80;;;2.16;65.95
44872;BME280;30602;51.060;17.226;2023-03-18T04:13:07;101514.25;;;2.13;66.80
44872;BME280;30602;51.060;17.226;2023-03-18T04:16:56;101501.59;;;2.05;66.57
44872;BME280;30602;51.060;17.226;2023-03-18T04:20:41;101507.79;;;2.19;66.18
44872;BME280;30602;51.060;17.226;2023-03-18T04:24:17;101509.29;;;2.22;66.07
44872;BME280;30602;51.060;17.226;2023-03-18T04:28:32;101518.27;;;2.21;66.72
44872;BME280;30602;51.060;17.226;2023-03-18T04:32:02;101523.16;;;2.10;68.31
44872;BME280;30602;51.060;17.226;2023-03-18T04:35:21;101524.18;;;2.04;68.55
44872;BME280;30602;51.060;17.226;2023-03-18T04:38:40;101521.96;;;1.95;69.18
44872;BME280;30602;51.060;17.226;2023-03-18T04:42:09;101521.18;;;1.97;68.99
44872;BME280;30602;51.060;17.226;2023-03-18T04:45:53;101522.41;;;1.95;69.21
44872;BME280;30602;51.060;17.226;2023-03-18T04:49:39;101525.40;;;2.02;68.62
44872;BME280;30602;51.060;17.226;2023-03-18T04:53:21;101524.63;;;2.02;68.07
44872;BME280;30602;51.060;17.226;2023-03-18T04:56:40;101521.31;;;1.95;68.33
44872;BME280;30602;51.060;17.226;2023-03-18T05:00:48;101518.33;;;2.03;67.92
44872;BME280;30602;51.060;17.226;2023-03-18T05:05:12;101522.86;;;2.05;67.77
44872;BME280;30602;51.060;17.226;2023-03-18T05:08:42;101522.20;;;2.06;68.45
44872;BME280;30602;51.060;17.226;2023-03-18T05:12:23;101529.00;;;2.07;68.63
44872;BME280;30602;51.060;17.226;2023-03-18T05:16:17;101534.32;;;2.21;66.71
44872;BME280;30602;51.060;17.226;2023-03-18T05:19:48;101533.09;;;2.35;66.77
44872;BME280;30602;51.060;17.226;2023-03-18T05:23:42;101532.41;;;2.46;65.91
44872;BME280;30602;51.060;17.226;2023-03-18T05:27:19;101528.04;;;2.53;66.57
44872;BME280;30602;51.060;17.226;2023-03-18T05:30:41;101529.25;;;2.52;66.51
44872;BME280;30602;51.060;17.226;2023-03-18T05:34:30;101533.55;;;2.56;67.12
44872;BME280;30602;51.060;17.226;2023-03-18T05:42:00;101525.77;;;2.94;64.15
44872;BME280;30602;51.060;17.226;2023-03-18T05:49:37;101517.26;;;3.25;62.41
44872;BME280;30602;51.060;17.226;2023-03-18T05:53:15;101521.29;;;3.37;62.64
44872;BME280;30602;51.060;17.226;2023-03-18T05:56:59;101519.65;;;3.48;61.63
44872;BME280;30602;51.060;17.226;2023-03-18T06:00:27;101523.12;;;3.61;61.14
44872;BME280;30602;51.060;17.226;2023-03-18T06:04:08;101526.34;;;3.72;60.23
44872;BME280;30602;51.060;17.226;2023-03-18T06:08:20;101522.68;;;3.83;60.43
44872;BME280;30602;51.060;17.226;2023-03-18T06:12:20;101522.17;;;3.97;58.92
44872;BME280;30602;51.060;17.226;2023-03-18T06:15:45;101522.16;;;4.11;58.33
44872;BME280;30602;51.060;17.226;2023-03-18T06:19:23;101524.73;;;4.16;60.15
44872;BME280;30602;51.060;17.226;2023-03-18T06:23:51;101525.88;;;4.26;60.68
44872;BME280;30602;51.060;17.226;2023-03-18T06:27:32;101530.36;;;4.30;60.97
44872;BME280;30602;51.060;17.226;2023-03-18T06:30:57;101530.38;;;4.28;60.14
44872;BME280;30602;51.060;17.226;2023-03-18T06:34:15;101535.74;;;4.33;60.36
44872;BME280;30602;51.060;17.226;2023-03-18T06:38:29;101538.77;;;4.43;60.53
44872;BME280;30602;51.060;17.226;2023-03-18T06:42:07;101540.76;;;4.47;60.17
44872;BME280;30602;51.060;17.226;2023-03-18T06:45:29;101540.09;;;4.53;59.69
44872;BME280;30602;51.060;17.226;2023-03-18T06:48:51;101547.44;;;4.57;60.22
44872;BME280;30602;51.060;17.226;2023-03-18T06:53:21;101545.53;;;4.63;60.19
44872;BME280;30602;51.060;17.226;2023-03-18T06:57:04;101542.75;;;4.79;60.16
44872;BME280;30602;51.060;17.226;2023-03-18T07:00:42;101546.11;;;4.95;58.02
44872;BME280;30602;51.060;17.226;2023-03-18T07:04:54;101551.67;;;5.04;58.60
44872;BME280;30602;51.060;17.226;2023-03-18T07:08:26;101555.84;;;5.13;58.60
44872;BME280;30602;51.060;17.226;2023-03-18T07:12:01;101553.47;;;5.34;56.53
44872;BME280;30602;51.060;17.226;2023-03-18T07:15:21;101557.31;;;5.48;57.59
44872;BME280;30602;51.060;17.226;2023-03-18T07:18:51;101558.61;;;5.41;58.40
44872;BME280;30602;51.060;17.226;2023-03-18T07:22:25;101559.31;;;5.53;56.93
44872;BME280;30602;51.060;17.226;2023-03-18T07:26:14;101552.34;;;5.64;56.65
44872;BME280;30602;51.060;17.226;2023-03-18T07:29:46;101555.86;;;5.79;56.80
44872;BME280;30602;51.060;17.226;2023-03-18T07:33:08;101554.48;;;5.93;57.24
44872;BME280;30602;51.060;17.226;2023-03-18T07:37:26;101561.77;;;6.01;56.56
44872;BME280;30602;51.060;17.226;2023-03-18T07:40:48;101562.62;;;6.13;57.44
44872;BME280;30602;51.060;17.226;2023-03-18T07:44:10;101558.84;;;6.24;55.24
44872;BME280;30602;51.060;17.226;2023-03-18T07:47:41;101563.76;;;6.37;54.54
44872;BME280;30602;51.060;17.226;2023-03-18T07:51:00;101558.79;;;6.42;54.89
44872;BME280;30602;51.060;17.226;2023-03-18T07:54:57;101560.84;;;6.46;55.21
44872;BME280;30602;51.060;17.226;2023-03-18T07:58:40;101567.63;;;6.65;54.80
44872;BME280;30602;51.060;17.226;2023-03-18T08:02:03;101568.23;;;6.77;55.50
44872;BME280;30602;51.060;17.226;2023-03-18T08:05:59;101562.94;;;6.97;54.40
44872;BME280;30602;51.060;17.226;2023-03-18T08:09:25;101566.14;;;7.13;54.28
44872;BME280;30602;51.060;17.226;2023-03-18T08:13:17;101561.43;;;7.28;54.98
44872;BME280;30602;51.060;17.226;2023-03-18T08:17:27;101559.71;;;7.52;53.40
44872;BME280;30602;51.060;17.226;2023-03-18T08:24:52;101549.04;;;7.85;53.46
44872;BME280;30602;51.060;17.226;2023-03-18T08:29:12;101553.23;;;7.83;52.44
44872;BME280;30602;51.060;17.226;2023-03-18T08:32:59;101552.29;;;8.07;52.16
44872;BME280;30602;51.060;17.226;2023-03-18T08:36:22;101552.95;;;8.23;50.92
44872;BME280;30602;51.060;17.226;2023-03-18T08:39:46;101552.17;;;8.47;50.30
44872;BME280;30602;51.060;17.226;2023-03-18T08:43:34;101546.91;;;8.54;48.43
44872;BME280;30602;51.060;17.226;2023-03-18T08:47:30;101546.98;;;8.77;47.48
44872;BME280;30602;51.060;17.226;2023-03-18T08:51:06;101548.88;;;8.98;47.58
44872;BME280;30602;51.060;17.226;2023-03-18T08:54:47;101544.78;;;9.03;45.36
44872;BME280;30602;51.060;17.226;2023-03-18T08:58:31;101548.48;;;9.21;47.49
44872;BME280;30602;51.060;17.226;2023-03-18T09:06:28;101545.80;;;9.37;46.56
44872;BME280;30602;51.060;17.226;2023-03-18T09:10:21;101544.52;;;9.60;45.57
44872;BME280;30602;51.060;17.226;2023-03-18T09:13:47;101537.70;;;9.69;45.22
44872;BME280;30602;51.060;17.226;2023-03-18T09:17:47;101539.82;;;9.77;44.46
44872;BME280;30602;51.060;17.226;2023-03-18T09:21:30;101537.87;;;9.89;45.06
44872;BME280;30602;51.060;17.226;2023-03-18T09:25:09;101532.20;;;10.13;44.42
44872;BME280;30602;51.060;17.226;2023-03-18T09:28:43;101528.20;;;10.35;42.97
44872;BME280;30602;51.060;17.226;2023-03-18T09:32:02;101533.30;;;10.39;44.13
44872;BME280;30602;51.060;17.226;2023-03-18T09:35:42;101534.16;;;10.53;43.72
44872;BME280;30602;51.060;17.226;2023-03-18T09:39:42;101533.85;;;10.55;44.32
44872;BME280;30602;51.060;17.226;2023-03-18T09:51:24;101532.27;;;11.13;44.56
44872;BME280;30602;51.060;17.226;2023-03-18T09:55:44;101524.42;;;11.19;43.19
44872;BME280;30602;51.060;17.226;2023-03-18T10:03:13;101527.36;;;11.37;42.60
44872;BME280;30602;51.060;17.226;2023-03-18T10:07:00;101524.66;;;11.49;42.26
44872;BME280;30602;51.060;17.226;2023-03-18T10:10:33;101523.80;;;11.74;41.64
44872;BME280;30602;51.060;17.226;2023-03-18T10:18:28;101519.29;;;11.80;42.50
44872;BME280;30602;51.060;17.226;2023-03-18T10:27:07;101518.43;;;11.77;41.69
44872;BME280;30602;51.060;17.226;2023-03-18T10:30:59;101516.87;;;11.92;40.77
44872;BME280;30602;51.060;17.226;2023-03-18T10:38:48;101512.25;;;12.19;41.65
44872;BME280;30602;51.060;17.226;2023-03-18T10:42:20;101504.98;;;12.30;40.95
44872;BME280;30602;51.060;17.226;2023-03-18T10:55:59;101503.42;;;12.28;40.84
44872;BME280;30602;51.060;17.226;2023-03-18T10:59:26;101499.80;;;12.46;42.04
44872;BME280;30602;51.060;17.226;2023-03-18T11:02:49;101496.10;;;12.53;40.94
44872;BME280;30602;51.060;17.226;2023-03-18T11:06:48;101492.75;;;12.73;41.57
44872;BME280;30602;51.060;17.226;2023-03-18T11:15:24;101486.78;;;13.30;41.70
44872;BME280;30602;51.060;17.226;2023-03-18T11:19:40;101480.73;;;13.24;41.07
44872;BME280;30602;51.060;17.226;2023-03-18T11:27:24;101475.59;;;13.18;36.62
44872;BME280;30602;51.060;17.226;2023-03-18T11:31:17;101469.98;;;13.27;36.58
44872;BME280;30602;51.060;17.226;2023-03-18T11:34:59;101468.94;;;13.27;32.41
44872;BME280;30602;51.060;17.226;2023-03-18T11:38:35;101464.62;;;13.31;35.29
44872;BME280;30602;51.060;17.226;2023-03-18T11:42:28;101456.38;;;13.38;35.11
44872;BME280;30602;51.060;17.226;2023-03-18T11:46:13;101458.68;;;13.61;36.17
44872;BME280;30602;51.060;17.226;2023-03-18T11:50:41;101454.81;;;13.77;34.15
44872;BME280;30602;51.060;17.226;2023-03-18T12:02:05;101451.02;;;13.80;32.46
44872;BME280;30602;51.060;17.226;2023-03-18T12:06:15;101442.64;;;13.74;33.30
44872;BME280;30602;51.060;17.226;2023-03-18T12:10:39;101442.02;;;13.91;33.68
44872;BME280;30602;51.060;17.226;2023-03-18T12:15:00;101438.31;;;13.90;33.32
44872;BME280;30602;51.060;17.226;2023-03-18T12:47:42;101444.64;;;14.57;32.83
44872;BME280;30602;51.060;17.226;2023-03-18T12:59:31;101441.98;;;14.44;33.81
44872;BME280;30602;51.060;17.226;2023-03-18T13:03:37;101442.73;;;14.48;33.76
44872;BME280;30602;51.060;17.226;2023-03-18T13:18:38;101432.55;;;14.74;33.15
44872;BME280;30602;51.060;17.226;2023-03-18T13:26:05;101436.26;;;14.66;33.06
44872;BME280;30602;51.060;17.226;2023-03-18T13:34:22;101433.82;;;14.67;33.25
44872;BME280;30602;51.060;17.226;2023-03-18T13:42:31;101432.88;;;14.78;33.77
44872;BME280;30602;51.060;17.226;2023-03-18T13:46:28;101434.43;;;14.85;34.58
44872;BME280;30602;51.060;17.226;2023-03-18T13:54:22;101427.28;;;14.56;33.72
44872;BME280;30602;51.060;17.226;2023-03-18T13:58:44;101431.09;;;14.26;35.17
44872;BME280;30602;51.060;17.226;2023-03-18T14:02:40;101430.20;;;14.26;34.42
44872;BME280;30602;51.060;17.226;2023-03-18T14:06:52;101432.06;;;14.30;34.30
44872;BME280;30602;51.060;17.226;2023-03-18T14:19:19;101420.26;;;14.39;34.90
44872;BME280;30602;51.060;17.226;2023-03-18T14:26:39;101413.51;;;14.35;35.70
44872;BME280;30602;51.060;17.226;2023-03-18T14:41:56;101410.44;;;14.28;34.97
44872;BME280;30602;51.060;17.226;2023-03-18T14:45:32;101409.98;;;14.14;34.59
44872;BME280;30602;51.060;17.226;2023-03-18T14:53:11;101403.24;;;13.94;36.48
44872;BME280;30602;51.060;17.226;2023-03-18T14:57:02;101405.82;;;13.81;37.45
44872;BME280;30602;51.060;17.226;2023-03-18T15:00:29;101403.79;;;13.69;37.76
44872;BME280;30602;51.060;17.226;2023-03-18T15:04:22;101404.09;;;13.52;37.26
44872;BME280;30602;51.060;17.226;2023-03-18T15:08:19;101406.55;;;13.41;37.28
44872;BME280;30602;51.060;17.226;2023-03-18T15:11:52;101404.30;;;13.42;38.30
44872;BME280;30602;51.060;17.226;2023-03-18T15:15:48;101408.28;;;13.39;39.09
44872;BME280;30602;51.060;17.226;2023-03-18T15:20:15;101409.13;;;13.37;39.34
44872;BME280;30602;51.060;17.226;2023-03-18T15:23:47;101407.52;;;13.31;38.88
44872;BME280;30602;51.060;17.226;2023-03-18T15:27:53;101405.83;;;13.29;39.15
44872;BME280;30602;51.060;17.226;2023-03-18T15:32:25;101389.95;;;13.22;40.85
44872;BME280;30602;51.060;17.226;2023-03-18T15:36:06;101407.45;;;13.30;40.43
44872;BME280;30602;51.060;17.226;2023-03-18T15:39:40;101413.80;;;13.18;41.21
44872;BME280;30602;51.060;17.226;2023-03-18T15:47:23;101421.40;;;13.03;41.88
44872;BME280;30602;51.060;17.226;2023-03-18T15:55:30;101417.62;;;12.85;43.20
44872;BME280;30602;51.060;17.226;2023-03-18T15:59:19;101419.99;;;12.73;44.62
44872;BME280;30602;51.060;17.226;2023-03-18T16:02:42;101420.04;;;12.54;45.59
44872;BME280;30602;51.060;17.226;2023-03-18T16:10:30;101425.23;;;12.22;46.62
44872;BME280;30602;51.060;17.226;2023-03-18T16:13:55;101433.54;;;11.99;47.19
44872;BME280;30602;51.060;17.226;2023-03-18T16:17:19;101440.28;;;11.93;47.07
44872;BME280;30602;51.060;17.226;2023-03-18T16:20:38;101443.59;;;11.77;48.16
44872;BME280;30602;51.060;17.226;2023-03-18T16:24:06;101450.41;;;11.64;47.82
44872;BME280;30602;51.060;17.226;2023-03-18T16:28:01;101454.34;;;11.56;47.83
44872;BME280;30602;51.060;17.226;2023-03-18T16:31:28;101449.98;;;11.51;48.93
44872;BME280;30602;51.060;17.226;2023-03-18T16:38:56;101456.30;;;11.29;50.68
44872;BME280;30602;51.060;17.226;2023-03-18T16:42:30;101453.88;;;11.05;52.19
44872;BME280;30602;51.060;17.226;2023-03-18T16:46:24;101452.91;;;10.72;53.66
44872;BME280;30602;51.060;17.226;2023-03-18T16:50:47;101465.58;;;10.62;53.78
44872;BME280;30602;51.060;17.226;2023-03-18T16:54:45;101463.29;;;10.49;52.91
44872;BME280;30602;51.060;17.226;2023-03-18T16:58:31;101467.83;;;10.40;53.13
44872;BME280;30602;51.060;17.226;2023-03-18T17:02:30;101450.62;;;10.14;54.20
44872;BME280;30602;51.060;17.226;2023-03-18T17:06:13;101473.80;;;10.10;55.59
44872;BME280;30602;51.060;17.226;2023-03-18T17:09:57;101476.40;;;9.96;56.84
44872;BME280;30602;51.060;17.226;2023-03-18T17:14:02;101477.15;;;9.91;56.98
44872;BME280;30602;51.060;17.226;2023-03-18T17:17:33;101485.44;;;9.73;57.48
44872;BME280;30602;51.060;17.226;2023-03-18T17:21:19;101485.61;;;9.59;57.06
44872;BME280;30602;51.060;17.226;2023-03-18T17:25:00;101490.41;;;9.44;57.28
44872;BME280;30602;51.060;17.226;2023-03-18T17:28:33;101494.98;;;9.33;56.57
44872;BME280;30602;51.060;17.226;2023-03-18T17:32:18;101495.47;;;9.31;56.56
44872;BME280;30602;51.060;17.226;2023-03-18T17:36:23;101496.91;;;9.29;55.53
44872;BME280;30602;51.060;17.226;2023-03-18T17:39:46;101494.79;;;9.41;53.59
44872;BME280;30602;51.060;17.226;2023-03-18T17:43:26;101496.23;;;9.48;53.27
44872;BME280;30602;51.060;17.226;2023-03-18T17:47:13;101501.84;;;9.54;50.90
44872;BME280;30602;51.060;17.226;2023-03-18T17:52:18;101509.34;;;9.65;51.54
44872;BME280;30602;51.060;17.226;2023-03-18T17:55:45;101507.89;;;9.62;52.28
44872;BME280;30602;51.060;17.226;2023-03-18T17:59:39;101513.65;;;9.57;51.15
44872;BME280;30602;51.060;17.226;2023-03-18T18:03:26;101511.44;;;9.56;51.17
44872;BME280;30602;51.060;17.226;2023-03-18T18:11:22;101508.95;;;9.45;51.45
44872;BME280;30602;51.060;17.226;2023-03-18T18:14:44;101506.66;;;9.36;52.36
44872;BME280;30602;51.060;17.226;2023-03-18T18:22:19;101505.16;;;9.20;51.91
44872;BME280;30602;51.060;17.226;2023-03-18T18:25:41;101503.64;;;9.17;52.12
44872;BME280;30602;51.060;17.226;2023-03-18T18:29:32;101502.89;;;9.15;52.57
44872;BME280;30602;51.060;17.226;2023-03-18T18:32:55;101508.55;;;9.15;52.66
44872;BME280;30602;51.060;17.226;2023-03-18T18:37:10;101516.70;;;9.16;51.85
44872;BME280;30602;51.060;17.226;2023-03-18T18:40:54;101517.77;;;9.13;52.34
44872;BME280;30602;51.060;17.226;2023-03-18T18:44:37;101526.66;;;9.06;52.06
44872;BME280;30602;51.060;17.226;2023-03-18T18:49:35;101525.58;;;8.94;52.51
44872;BME280;30602;51.060;17.226;2023-03-18T18:57:24;101515.23;;;8.88;52.00
44872;BME280;30602;51.060;17.226;2023-03-18T19:01:30;101512.28;;;8.84;51.42
44872;BME280;30602;51.060;17.226;2023-03-18T19:06:32;101511.91;;;8.89;51.27
44872;BME280;30602;51.060;17.226;2023-03-18T19:10:11;101512.91;;;8.89;50.95
44872;BME280;30602;51.060;17.226;2023-03-18T19:17:47;101508.51;;;8.86;50.73
44872;BME280;30602;51.060;17.226;2023-03-18T19:22:52;101506.80;;;8.94;50.08
44872;BME280;30602;51.060;17.226;2023-03-18T19:26:39;101506.71;;;8.95;49.90
44872;BME280;30602;51.060;17.226;2023-03-18T19:30:53;101507.12;;;8.95;49.55
44872;BME280;30602;51.060;17.226;2023-03-18T19:34:38;101496.00;;;8.87;49.33
44872;BME280;30602;51.060;17.226;2023-03-18T19:38:32;101509.55;;;8.96;49.09
44872;BME280;30602;51.060;17.226;2023-03-18T19:41:56;101510.99;;;8.99;48.96
44872;BME280;30602;51.060;17.226;2023-03-18T19:46:32;101512.81;;;8.95;49.14
44872;BME280;30602;51.060;17.226;2023-03-18T19:50:18;101518.36;;;8.90;49.38
44872;BME280;30602;51.060;17.226;2023-03-18T19:54:09;101517.93;;;8.87;49.34
44872;BME280;30602;51.060;17.226;2023-03-18T19:57:32;101518.87;;;8.78;50.09
44872;BME280;30602;51.060;17.226;2023-03-18T20:01:09;101517.30;;;8.73;50.33
44872;BME280;30602;51.060;17.226;2023-03-18T20:05:03;101518.31;;;8.73;50.52
44872;BME280;30602;51.060;17.226;2023-03-18T20:08:47;101510.29;;;8.59;50.69
44872;BME280;30602;51.060;17.226;2023-03-18T20:12:59;101510.89;;;8.51;50.95
44872;BME280;30602;51.060;17.226;2023-03-18T20:16:22;101511.49;;;8.41;51.29
44872;BME280;30602;51.060;17.226;2023-03-18T20:20:24;101508.01;;;8.34;51.56
44872;BME280;30602;51.060;17.226;2023-03-18T20:24:34;101514.15;;;8.26;51.75
44872;BME280;30602;51.060;17.226;2023-03-18T20:30:14;101512.98;;;8.27;51.47
44872;BME280;30602;51.060;17.226;2023-03-18T20:34:36;101511.73;;;8.25;51.69
44872;BME280;30602;51.060;17.226;2023-03-18T20:42:07;101515.36;;;8.12;51.81
44872;BME280;30602;51.060;17.226;2023-03-18T20:47:05;101508.71;;;8.10;51.73
44872;BME280;30602;51.060;17.226;2023-03-18T20:50:44;101500.97;;;8.12;51.73
44872;BME280;30602;51.060;17.226;2023-03-18T20:54:47;101506.33;;;8.07;51.96
44872;BME280;30602;51.060;17.226;2023-03-18T20:58:59;101504.25;;;8.02;52.21
44872;BME280;30602;51.060;17.226;2023-03-18T21:02:58;101505.10;;;7.98;52.14
44872;BME280;30602;51.060;17.226;2023-03-18T21:06:41;101499.72;;;7.91;52.07
44872;BME280;30602;51.060;17.226;2023-03-18T21:10:41;101503.16;;;7.90;52.24
44872;BME280;30602;51.060;17.226;2023-03-18T21:14:04;101505.57;;;7.79;52.76
44872;BME280;30602;51.060;17.226;2023-03-18T21:18:01;101507.92;;;7.76;53.28
44872;BME280;30602;51.060;17.226;2023-03-18T21:22:41;101507.04;;;7.69;53.12
44872;BME280;30602;51.060;17.226;2023-03-18T21:26:51;101507.73;;;7.72;52.72
44872;BME280;30602;51.060;17.226;2023-03-18T21:30:34;101506.21;;;7.72;52.39
44872;BME280;30602;51.060;17.226;2023-03-18T21:34:51;101504.82;;;7.66;53.13
44872;BME280;30602;51.060;17.226;2023-03-18T21:38:31;101499.91;;;7.58;53.35
44872;BME280;30602;51.060;17.226;2023-03-18T21:41:56;101496.09;;;7.55;53.39
44872;BME280;30602;51.060;17.226;2023-03-18T21:45:25;101506.36;;;7.48;53.42
44872;BME280;30602;51.060;17.226;2023-03-18T21:49:47;101495.02;;;7.35;53.80
44872;BME280;30602;51.060;17.226;2023-03-18T21:53:15;101505.35;;;7.38;53.74
44872;BME280;30602;51.060;17.226;2023-03-18T21:57:08;101505.81;;;7.36;53.97
44872;BME280;30602;51.060;17.226;2023-03-18T22:01:20;101500.73;;;7.25;53.91
44872;BME280;30602;51.060;17.226;2023-03-18T22:05:32;101497.19;;;7.25;54.24
44872;BME280;30602;51.060;17.226;2023-03-18T22:09:48;101497.23;;;7.25;53.93
44872;BME280;30602;51.060;17.226;2023-03-18T22:14:00;101501.41;;;7.22;53.88
44872;BME280;30602;51.060;17.226;2023-03-18T22:17:57;101495.33;;;7.16;54.34
44872;BME280;30602;51.060;17.226;2023-03-18T22:21:33;101499.35;;;7.09;55.17
44872;BME280;30602;51.060;17.226;2023-03-18T22:26:31;101508.31;;;6.99;55.68
44872;BME280;30602;51.060;17.226;2023-03-18T22:30:13;101513.92;;;6.87;55.36
44872;BME280;30602;51.060;17.226;2023-03-18T22:34:31;101515.34;;;6.74;56.42
44872;BME280;30602;51.060;17.226;2023-03-18T22:38:47;101514.59;;;6.60;56.87
44872;BME280;30602;51.060;17.226;2023-03-18T22:43:39;101518.05;;;6.48;57.36
44872;BME280;30602;51.060;17.226;2023-03-18T22:47:27;101519.73;;;6.36;57.53
44872;BME280;30602;51.060;17.226;2023-03-18T22:50:59;101518.19;;;6.19;58.55
44872;BME280;30602;51.060;17.226;2023-03-18T22:55:23;101517.76;;;6.08;59.03
44872;BME280;30602;51.060;17.226;2023-03-18T22:59:10;101516.92;;;5.99;60.26
44872;BME280;30602;51.060;17.226;2023-03-18T23:02:37;101519.40;;;5.90;60.44
44872;BME280;30602;51.060;17.226;2023-03-18T23:06:32;101519.48;;;5.83;60.62
44872;BME280;30602;51.060;17.226;2023-03-18T23:10:35;101513.96;;;5.87;60.65
44872;BME280;30602;51.060;17.226;2023-03-18T23:13:56;101519.69;;;5.81;61.13
44872;BME280;30602;51.060;17.226;2023-03-18T23:17:25;101524.41;;;5.70;60.73
44872;BME280;30602;51.060;17.226;2023-03-18T23:21:17;101530.55;;;5.53;61.33
44872;BME280;30602;51.060;17.226;2023-03-18T23:25:34;101534.43;;;5.30;62.15
44872;BME280;30602;51.060;17.226;2023-03-18T23:29:33;101532.17;;;5.29;62.80
44872;BME280;30602;51.060;17.226;2023-03-18T23:33:34;101535.74;;;5.21;63.71
44872;BME280;30602;51.060;17.226;2023-03-18T23:36:52;101534.71;;;4.86;65.49
44872;BME280;30602;51.060;17.226;2023-03-18T23:44:53;101544.02;;;4.46;67.77